createdAt,value
2018-08-30T09:37:06.968Z,25.00
2018-08-30T09:39:35.448Z,24.90
2018-08-30T09:42:04.271Z,25.00
2018-08-30T09:44:32.901Z,25.10
2018-08-30T09:47:00.718Z,25.20
2018-08-30T09:49:28.505Z,25.30
2018-08-30T09:51:56.344Z,25.40
2018-08-30T09:54:24.065Z,25.40
2018-08-30T09:56:51.806Z,25.50
2018-08-30T09:59:19.565Z,25.60
2018-08-30T10:01:50.050Z,25.70
2018-08-30T10:04:18.402Z,25.70
2018-08-30T10:06:46.145Z,25.70
2018-08-30T10:09:13.941Z,25.70
2018-08-30T10:11:41.700Z,25.80
2018-08-30T10:14:10.116Z,26.00
2018-08-30T10:16:37.884Z,26.10
2018-08-30T10:19:05.605Z,26.00
2018-08-30T10:21:33.561Z,26.00
2018-08-30T10:24:01.282Z,26.10
2018-08-30T10:26:29.006Z,26.20
2018-08-30T10:28:57.825Z,26.30
2018-08-30T10:31:25.541Z,26.30
2018-08-30T10:33:53.356Z,26.40
2018-08-30T10:36:21.653Z,26.50
2018-08-30T10:38:49.473Z,26.60
2018-08-30T10:41:17.209Z,26.70
2018-08-30T10:43:45.015Z,26.80
2018-08-30T10:46:12.734Z,27.00
2018-08-30T10:48:41.513Z,27.20
2018-08-30T10:51:09.325Z,27.20
2018-08-30T10:53:37.186Z,27.30
2018-08-30T10:56:04.979Z,27.40
2018-08-30T10:58:32.796Z,27.50
2018-08-30T11:01:01.262Z,27.60
2018-08-30T11:03:29.141Z,27.50
2018-08-30T11:05:56.933Z,27.60
2018-08-30T11:08:24.724Z,27.60
2018-08-30T11:10:53.453Z,27.70
2018-08-30T11:13:21.257Z,27.70
2018-08-30T11:15:48.978Z,27.80
2018-08-30T11:18:16.790Z,28.00
2018-08-30T11:20:44.529Z,28.00
2018-08-30T11:23:12.329Z,28.00
2018-08-30T11:25:40.097Z,27.90
2018-08-30T11:28:07.856Z,28.00
2018-08-30T11:30:35.560Z,28.10
2018-08-30T11:33:03.390Z,28.00
2018-08-30T11:35:31.154Z,28.10
2018-08-30T11:37:58.925Z,28.10
2018-08-30T11:40:26.649Z,28.30
2018-08-30T11:42:54.500Z,28.30
2018-08-30T11:45:22.300Z,28.40
2018-08-30T11:47:50.084Z,28.50
2018-08-30T11:50:17.780Z,28.60
2018-08-30T11:52:45.602Z,28.70
2018-08-30T11:55:13.344Z,28.80
2018-08-30T11:57:41.138Z,28.80
2018-08-30T12:00:08.913Z,28.80
2018-08-30T12:02:36.794Z,28.90
2018-08-30T12:05:05.149Z,29.00
2018-08-30T12:07:32.872Z,29.00
2018-08-30T12:10:00.779Z,29.00
2018-08-30T12:12:28.472Z,29.10
2018-08-30T12:14:56.249Z,29.20
2018-08-30T12:17:23.944Z,29.30
2018-08-30T12:19:51.716Z,29.10
2018-08-30T12:22:19.398Z,28.90
2018-08-30T12:24:47.193Z,28.70
2018-08-30T12:27:14.968Z,28.50
2018-08-30T12:29:42.659Z,28.30
2018-08-30T12:32:11.280Z,28.20
2018-08-30T12:34:39.792Z,27.90
2018-08-30T12:37:08.202Z,27.70
2018-08-30T12:39:36.686Z,27.70
2018-08-30T12:42:05.166Z,27.80
2018-08-30T12:44:33.591Z,27.80
2018-08-30T12:47:02.106Z,27.70
2018-08-30T12:49:30.500Z,27.70
2018-08-30T12:51:59.018Z,27.90
2018-08-30T12:54:27.562Z,28.00
2018-08-30T12:56:55.318Z,27.90
2018-08-30T12:59:28.597Z,27.90
2018-08-30T13:01:56.426Z,27.90
2018-08-30T13:04:24.356Z,27.80
2018-08-30T13:06:54.959Z,27.80
2018-08-30T13:09:23.221Z,27.70
2018-08-30T13:11:51.145Z,27.50
2018-08-30T13:14:19.497Z,27.40
2018-08-30T13:16:47.102Z,27.20
2018-08-30T13:19:14.897Z,27.40
2018-08-30T13:21:43.365Z,27.30
2018-08-30T13:24:11.153Z,27.40
2018-08-30T13:26:39.247Z,27.70
2018-08-30T13:29:07.021Z,28.00
2018-08-30T13:31:34.922Z,28.30
2018-08-30T13:34:03.267Z,28.40
2018-08-30T13:36:30.764Z,28.80
2018-08-30T13:38:58.744Z,29.10
2018-08-30T13:41:26.616Z,29.40
2018-08-30T13:43:54.214Z,29.40
2018-08-30T13:46:21.818Z,29.30
2018-08-30T13:48:49.588Z,28.80
2018-08-30T13:51:17.379Z,28.40
2018-08-30T13:53:45.384Z,28.00
2018-08-30T13:56:13.087Z,27.60
2018-08-30T13:58:41.331Z,27.30
2018-08-30T14:01:08.922Z,26.90
2018-08-30T14:03:36.220Z,26.40
2018-08-30T14:06:03.944Z,26.00
2018-08-30T14:08:31.587Z,25.50
2018-08-30T14:10:59.426Z,25.30
2018-08-30T14:13:28.292Z,25.10
2018-08-30T14:15:56.501Z,25.00
2018-08-30T16:39:49.341Z,18.50
2018-08-30T16:42:17.801Z,18.40
2018-08-30T16:44:46.337Z,18.50
2018-08-30T16:47:14.823Z,18.60
2018-08-30T16:49:43.218Z,18.60
2018-08-30T16:52:11.706Z,18.70
2018-08-30T16:54:40.181Z,18.80
2018-08-30T16:57:08.680Z,18.70
2018-08-30T16:59:37.165Z,18.70
2018-08-30T17:02:05.743Z,18.70
2018-08-30T17:04:34.170Z,18.80
2018-08-30T17:07:02.649Z,18.80
2018-08-30T17:09:31.081Z,18.70
2018-08-30T17:11:59.587Z,18.70
2018-08-30T17:14:28.545Z,18.70
2018-08-30T17:16:57.051Z,18.70
2018-08-30T17:19:30.113Z,18.70
2018-08-30T17:21:58.605Z,18.60
2018-08-30T17:24:27.050Z,18.50
2018-08-30T17:26:55.506Z,18.40
2018-08-30T17:29:24.158Z,18.50
2018-08-30T17:31:52.614Z,18.40
2018-08-30T17:34:22.158Z,18.50
2018-08-30T17:36:50.818Z,18.60
2018-08-30T17:39:19.277Z,18.60
2018-08-30T17:41:48.902Z,18.60
2018-08-30T17:44:17.382Z,18.60
2018-08-30T17:46:45.914Z,18.60
2018-08-30T17:49:15.508Z,18.70
2018-08-30T17:51:44.213Z,18.70
2018-08-30T17:54:12.785Z,18.60
2018-08-30T17:56:41.318Z,18.70
2018-08-30T17:59:09.962Z,18.70
2018-08-30T18:01:38.542Z,18.70
2018-08-30T18:04:08.034Z,18.70
2018-08-30T18:06:36.574Z,18.60
2018-08-30T18:09:07.881Z,18.70
2018-08-30T18:11:36.885Z,18.70
2018-08-30T18:14:05.441Z,18.70
2018-08-30T18:16:34.027Z,18.70
2018-08-30T18:19:02.998Z,18.70
2018-08-30T18:21:31.463Z,18.70
2018-08-30T18:23:59.961Z,18.70
2018-08-30T18:26:28.408Z,18.60
2018-08-30T18:28:56.945Z,18.60
2018-08-30T18:31:25.395Z,18.60
2018-08-30T18:33:53.893Z,18.50
2018-08-30T18:36:22.415Z,18.40
2018-08-30T18:38:51.005Z,18.30
2018-08-30T18:41:19.449Z,18.40
2018-08-30T18:43:47.917Z,18.40
2018-08-30T18:46:16.461Z,18.30
2018-08-30T18:48:45.472Z,18.40
2018-08-30T18:51:14.006Z,18.50
2018-08-30T18:53:42.646Z,18.50
2018-08-30T18:56:11.171Z,18.40
2018-08-30T18:58:39.745Z,18.30
2018-08-30T19:01:08.250Z,18.30
2018-08-30T19:03:36.885Z,18.30
2018-08-30T19:06:05.433Z,18.30
2018-08-30T19:10:03.325Z,18.30
2018-08-30T19:12:33.006Z,18.30
2018-08-30T19:15:06.737Z,18.30
2018-08-30T19:17:40.717Z,18.20
2018-08-30T19:20:09.531Z,18.30
2018-08-30T19:22:38.179Z,18.20
2018-08-30T19:25:12.166Z,18.20
2018-08-30T19:27:40.778Z,18.20
2018-08-30T19:30:14.845Z,18.10
2018-08-30T19:32:43.339Z,18.10
2018-08-30T19:35:17.406Z,18.10
2018-08-30T19:37:45.975Z,18.20
2018-08-30T19:40:19.861Z,18.10
2018-08-30T19:42:49.782Z,18.10
2018-08-30T19:45:18.216Z,18.10
2018-08-30T19:47:46.740Z,18.10
2018-08-30T19:50:15.365Z,18.10
2018-08-30T19:52:44.170Z,18.00
2018-08-30T19:55:12.686Z,18.00
2018-08-30T19:57:42.157Z,18.00
2018-08-30T20:00:10.698Z,18.10
2018-08-30T20:02:39.214Z,18.10
2018-08-30T20:05:07.738Z,18.00
2018-08-30T20:07:36.543Z,18.00
2018-08-30T20:10:06.029Z,17.90
2018-08-30T20:12:34.453Z,17.90
2018-08-30T20:15:03.049Z,17.80
2018-08-30T20:17:31.490Z,17.80
2018-08-30T20:20:00.001Z,17.80
2018-08-30T20:22:28.578Z,17.80
2018-08-30T20:24:57.021Z,17.90
2018-08-30T20:27:25.848Z,17.80
2018-08-30T20:29:54.855Z,17.80
2018-08-30T20:32:24.612Z,17.80
2018-08-30T20:34:53.082Z,17.70
2018-08-30T20:37:21.582Z,17.70
2018-08-30T20:39:51.069Z,17.80
2018-08-30T20:42:19.741Z,17.80
2018-08-30T20:44:49.286Z,17.80
2018-08-30T20:47:18.782Z,17.70
2018-08-30T20:49:48.497Z,17.70
2018-08-30T20:52:17.021Z,17.70
2018-08-30T20:54:45.522Z,17.70
2018-08-30T20:57:15.977Z,17.70
2018-08-30T20:59:45.510Z,17.60
2018-08-30T21:02:14.106Z,17.60
2018-08-30T21:04:42.629Z,17.70
2018-08-30T21:07:11.185Z,17.70
2018-08-30T21:09:39.685Z,17.70
2018-08-30T21:12:09.230Z,17.80
2018-08-30T21:14:38.694Z,17.80
2018-08-30T21:17:08.250Z,17.80
2018-08-30T21:19:38.437Z,17.80
2018-08-30T21:22:07.465Z,17.90
2018-08-30T21:24:36.149Z,17.90
2018-08-30T21:27:04.669Z,17.90
2018-08-30T21:29:33.234Z,18.00
2018-08-30T21:32:02.789Z,18.00
2018-08-30T21:34:32.438Z,18.00
2018-08-30T21:37:01.893Z,18.00
2018-08-30T21:40:33.537Z,18.10
2018-08-30T21:43:03.105Z,18.10
2018-08-30T21:45:32.605Z,18.20
2018-08-30T21:48:01.079Z,18.10
2018-08-30T21:50:29.565Z,18.00
2018-08-30T21:52:57.317Z,18.10
2018-08-30T21:55:25.293Z,18.10
2018-08-30T21:57:54.133Z,18.10
2018-08-30T22:00:21.842Z,18.10
2018-08-30T22:02:49.636Z,18.20
2018-08-30T22:05:17.694Z,18.20
2018-08-30T22:07:45.516Z,18.20
2018-08-30T22:10:13.284Z,18.10
2018-08-30T22:12:42.032Z,18.20
2018-08-30T22:15:09.736Z,18.20
2018-08-30T22:17:37.620Z,18.20
2018-08-30T22:20:06.248Z,18.10
2018-08-30T22:22:33.994Z,18.10
2018-08-30T22:25:02.776Z,18.10
2018-08-30T22:27:30.536Z,18.10
2018-08-30T22:29:58.325Z,18.10
2018-08-30T22:32:27.060Z,18.10
2018-08-30T22:34:54.861Z,18.10
2018-08-30T22:37:22.613Z,18.10
2018-08-30T22:39:50.350Z,18.10
2018-08-30T22:42:19.305Z,18.20
2018-08-30T22:44:48.360Z,18.20
2018-08-30T22:47:17.185Z,18.10
2018-08-30T22:49:45.967Z,18.10
2018-08-30T22:52:13.689Z,18.10
2018-08-30T22:54:41.525Z,18.10
2018-08-30T22:57:09.320Z,18.10
2018-08-30T22:59:37.144Z,18.10
2018-08-30T23:02:05.861Z,18.10
2018-08-30T23:04:34.546Z,18.00
2018-08-30T23:07:02.356Z,18.00
2018-08-30T23:09:30.091Z,18.00
2018-08-30T23:11:58.892Z,18.00
2018-08-30T23:14:26.709Z,18.00
2018-08-30T23:16:54.433Z,18.00
2018-08-30T23:19:22.274Z,17.90
2018-08-30T23:21:50.098Z,17.90
2018-08-30T23:24:18.833Z,17.90
2018-08-30T23:26:47.541Z,17.80
2018-08-30T23:29:16.289Z,17.80
2018-08-30T23:31:44.080Z,17.80
2018-08-30T23:34:12.872Z,17.80
2018-08-30T23:36:41.674Z,17.80
2018-08-30T23:39:11.484Z,17.80
2018-08-30T23:41:39.252Z,17.90
2018-08-30T23:44:08.600Z,17.90
2018-08-30T23:46:36.733Z,17.90
2018-08-30T23:49:05.769Z,17.90
2018-08-30T23:51:33.601Z,17.80
2018-08-30T23:54:02.365Z,17.80
2018-08-30T23:56:30.137Z,17.80
2018-08-30T23:59:03.409Z,17.80
